sensor_id;sensor_type;location;lat;lon;timestamp;pressure;altitude;pressure_sealevel;temperature;humidity
28927;BME280;16038;47.692;9.400;2023-06-10T00:01:00;96078.81;;;19.02;56.49
28927;BME280;16038;47.692;9.400;2023-06-10T00:03:26;96080.53;;;18.96;56.97
28927;BME280;16038;47.692;9.400;2023-06-10T00:05:51;96073.78;;;18.97;57.03
28927;BME280;16038;47.692;9.400;2023-06-10T00:08:17;96082.19;;;18.93;57.37
28927;BME280;16038;47.692;9.400;2023-06-10T00:10:45;96085.75;;;18.94;57.67
28927;BME280;16038;47.692;9.400;2023-06-10T00:13:10;96090.03;;;18.82;58.56
28927;BME280;16038;47.692;9.400;2023-06-10T00:15:37;96088.44;;;18.81;58.82
28927;BME280;16038;47.692;9.400;2023-06-10T00:18:03;96086.03;;;18.83;59.00
28927;BME280;16038;47.692;9.400;2023-06-10T00:20:29;96091.06;;;18.71;59.77
28927;BME280;16038;47.692;9.400;2023-06-10T00:22:57;96096.16;;;18.73;60.24
28927;BME280;16038;47.692;9.400;2023-06-10T00:25:23;96101.97;;;18.79;59.79
28927;BME280;16038;47.692;9.400;2023-06-10T00:27:49;96090.38;;;18.84;59.89
28927;BME280;16038;47.692;9.400;2023-06-10T00:30:14;96094.50;;;18.76;60.41
28927;BME280;16038;47.692;9.400;2023-06-10T00:32:40;96096.00;;;18.64;61.31
28927;BME280;16038;47.692;9.400;2023-06-10T00:35:06;96088.81;;;18.50;62.21
28927;BME280;16038;47.692;9.400;2023-06-10T00:37:33;96088.91;;;18.46;62.79
28927;BME280;16038;47.692;9.400;2023-06-10T00:40:04;96082.50;;;18.49;62.80
28927;BME280;16038;47.692;9.400;2023-06-10T00:42:30;96083.03;;;18.44;63.38
28927;BME280;16038;47.692;9.400;2023-06-10T00:44:56;96086.72;;;18.38;63.88
28927;BME280;16038;47.692;9.400;2023-06-10T00:47:21;96077.22;;;18.39;64.12
28927;BME280;16038;47.692;9.400;2023-06-10T00:49:47;96083.97;;;18.38;64.56
28927;BME280;16038;47.692;9.400;2023-06-10T00:52:14;96082.75;;;18.39;64.85
28927;BME280;16038;47.692;9.400;2023-06-10T00:54:41;96077.03;;;18.29;65.77
28927;BME280;16038;47.692;9.400;2023-06-10T00:57:06;96072.44;;;18.23;66.34
28927;BME280;16038;47.692;9.400;2023-06-10T00:59:32;96081.53;;;18.23;66.50
28927;BME280;16038;47.692;9.400;2023-06-10T01:01:58;96074.88;;;18.21;66.80
28927;BME280;16038;47.692;9.400;2023-06-10T01:04:24;96080.16;;;18.15;67.22
28927;BME280;16038;47.692;9.400;2023-06-10T01:07:10;96070.63;;;18.16;67.31
28927;BME280;16038;47.692;9.400;2023-06-10T01:12:31;96074.31;;;18.09;67.92
28927;BME280;16038;47.692;9.400;2023-06-10T01:14:59;96079.19;;;18.05;68.46
28927;BME280;16038;47.692;9.400;2023-06-10T01:17:26;96072.53;;;18.03;68.76
28927;BME280;16038;47.692;9.400;2023-06-10T01:19:58;96079.19;;;18.05;68.68
28927;BME280;16038;47.692;9.400;2023-06-10T01:22:25;96064.28;;;17.99;69.38
28927;BME280;16038;47.692;9.400;2023-06-10T01:24:56;96073.88;;;17.94;69.45
28927;BME280;16038;47.692;9.400;2023-06-10T01:27:26;96066.00;;;17.93;69.71
28927;BME280;16038;47.692;9.400;2023-06-10T01:30:14;96077.03;;;17.76;70.67
28927;BME280;16038;47.692;9.400;2023-06-10T01:32:50;96084.91;;;17.78;71.02
28927;BME280;16038;47.692;9.400;2023-06-10T01:35:17;96078.75;;;17.70;71.73
28927;BME280;16038;47.692;9.400;2023-06-10T01:37:45;96087.69;;;17.58;72.76
28927;BME280;16038;47.692;9.400;2023-06-10T01:40:11;96094.09;;;17.55;73.28
28927;BME280;16038;47.692;9.400;2023-06-10T01:42:37;96098.56;;;17.49;73.94
28927;BME280;16038;47.692;9.400;2023-06-10T01:45:03;96092.09;;;17.55;73.84
28927;BME280;16038;47.692;9.400;2023-06-10T01:47:28;96101.47;;;17.62;73.51
28927;BME280;16038;47.692;9.400;2023-06-10T01:49:54;96099.81;;;17.64;73.76
28927;BME280;16038;47.692;9.400;2023-06-10T01:52:20;96099.63;;;17.55;74.18
28927;BME280;16038;47.692;9.400;2023-06-10T01:54:45;96101.97;;;17.56;74.36
28927;BME280;16038;47.692;9.400;2023-06-10T01:57:10;96110.69;;;17.55;74.70
28927;BME280;16038;47.692;9.400;2023-06-10T01:59:36;96108.44;;;17.50;75.61
28927;BME280;16038;47.692;9.400;2023-06-10T02:02:04;96116.38;;;17.48;75.51
28927;BME280;16038;47.692;9.400;2023-06-10T02:04:29;96116.94;;;17.39;76.57
28927;BME280;16038;47.692;9.400;2023-06-10T02:06:55;96120.66;;;17.32;77.10
28927;BME280;16038;47.692;9.400;2023-06-10T02:09:21;96119.22;;;17.24;77.84
28927;BME280;16038;47.692;9.400;2023-06-10T02:11:48;96124.69;;;17.28;77.80
28927;BME280;16038;47.692;9.400;2023-06-10T02:14:14;96120.41;;;17.23;78.43
28927;BME280;16038;47.692;9.400;2023-06-10T02:16:39;96124.69;;;17.28;78.47
28927;BME280;16038;47.692;9.400;2023-06-10T02:19:05;96137.47;;;17.22;78.67
28927;BME280;16038;47.692;9.400;2023-06-10T02:21:32;96122.34;;;17.26;78.75
28927;BME280;16038;47.692;9.400;2023-06-10T02:23:59;96127.53;;;17.24;79.00
28927;BME280;16038;47.692;9.400;2023-06-10T02:26:25;96134.75;;;17.18;79.34
28927;BME280;16038;47.692;9.400;2023-06-10T02:28:51;96135.13;;;17.20;79.37
28927;BME280;16038;47.692;9.400;2023-06-10T02:31:16;96133.19;;;17.17;79.49
28927;BME280;16038;47.692;9.400;2023-06-10T02:33:43;96137.03;;;17.23;79.61
28927;BME280;16038;47.692;9.400;2023-06-10T02:36:10;96140.31;;;17.18;79.69
28927;BME280;16038;47.692;9.400;2023-06-10T02:38:39;96140.16;;;17.25;79.47
28927;BME280;16038;47.692;9.400;2023-06-10T02:41:07;96139.44;;;17.21;79.43
28927;BME280;16038;47.692;9.400;2023-06-10T02:43:33;96138.00;;;16.93;81.76
28927;BME280;16038;47.692;9.400;2023-06-10T02:45:58;96141.31;;;16.80;82.52
28927;BME280;16038;47.692;9.400;2023-06-10T02:48:24;96149.25;;;16.78;82.55
28927;BME280;16038;47.692;9.400;2023-06-10T02:50:50;96145.28;;;16.79;82.90
28927;BME280;16038;47.692;9.400;2023-06-10T02:53:15;96146.72;;;16.64;84.09
28927;BME280;16038;47.692;9.400;2023-06-10T02:55:41;96145.41;;;16.72;84.03
28927;BME280;16038;47.692;9.400;2023-06-10T02:58:07;96155.34;;;16.70;84.07
28927;BME280;16038;47.692;9.400;2023-06-10T03:00:32;96143.56;;;16.66;84.64
28927;BME280;16038;47.692;9.400;2023-06-10T03:02:58;96139.22;;;16.65;84.76
28927;BME280;16038;47.692;9.400;2023-06-10T03:05:25;96142.75;;;16.65;84.76
28927;BME280;16038;47.692;9.400;2023-06-10T03:07:51;96145.25;;;16.83;83.55
28927;BME280;16038;47.692;9.400;2023-06-10T03:10:16;96149.19;;;16.58;85.24
28927;BME280;16038;47.692;9.400;2023-06-10T03:12:42;96153.75;;;16.45;86.26
28927;BME280;16038;47.692;9.400;2023-06-10T03:15:07;96155.00;;;16.40;86.70
28927;BME280;16038;47.692;9.400;2023-06-10T03:17:33;96154.22;;;16.40;86.80
28927;BME280;16038;47.692;9.400;2023-06-10T03:19:58;96164.75;;;16.49;86.35
28927;BME280;16038;47.692;9.400;2023-06-10T03:22:23;96159.69;;;16.43;86.67
28927;BME280;16038;47.692;9.400;2023-06-10T03:24:49;96166.94;;;16.34;87.35
28927;BME280;16038;47.692;9.400;2023-06-10T03:27:16;96167.78;;;16.31;87.77
28927;BME280;16038;47.692;9.400;2023-06-10T03:29:41;96171.41;;;16.24;88.34
28927;BME280;16038;47.692;9.400;2023-06-10T03:32:07;96170.63;;;16.23;88.58
28927;BME280;16038;47.692;9.400;2023-06-10T03:34:32;96168.28;;;16.22;88.73
28927;BME280;16038;47.692;9.400;2023-06-10T03:36:59;96174.56;;;16.26;88.90
28927;BME280;16038;47.692;9.400;2023-06-10T03:39:25;96165.25;;;16.13;89.46
28927;BME280;16038;47.692;9.400;2023-06-10T03:41:50;96171.66;;;16.06;89.94
28927;BME280;16038;47.692;9.400;2023-06-10T03:44:16;96175.63;;;16.05;90.49
28927;BME280;16038;47.692;9.400;2023-06-10T03:46:41;96178.56;;;16.21;89.53
28927;BME280;16038;47.692;9.400;2023-06-10T03:49:07;96169.03;;;16.26;89.23
28927;BME280;16038;47.692;9.400;2023-06-10T03:51:33;96178.63;;;16.18;89.58
28927;BME280;16038;47.692;9.400;2023-06-10T03:53:58;96176.31;;;16.13;89.83
28927;BME280;16038;47.692;9.400;2023-06-10T03:56:23;96180.84;;;15.99;91.19
28927;BME280;16038;47.692;9.400;2023-06-10T03:58:49;96175.44;;;16.19;90.04
28927;BME280;16038;47.692;9.400;2023-06-10T04:01:14;96182.63;;;16.13;90.60
28927;BME280;16038;47.692;9.400;2023-06-10T04:03:40;96185.13;;;16.31;89.75
28927;BME280;16038;47.692;9.400;2023-06-10T04:06:07;96186.94;;;16.14;90.29
28927;BME280;16038;47.692;9.400;2023-06-10T04:08:32;96183.13;;;16.35;89.17
28927;BME280;16038;47.692;9.400;2023-06-10T04:10:58;96186.03;;;16.52;88.88
28927;BME280;16038;47.692;9.400;2023-06-10T04:13:24;96189.22;;;16.74;87.23
28927;BME280;16038;47.692;9.400;2023-06-10T04:15:50;96196.72;;;17.00;85.46
28927;BME280;16038;47.692;9.400;2023-06-10T04:18:16;96194.50;;;17.15;83.92
28927;BME280;16038;47.692;9.400;2023-06-10T04:20:41;96192.91;;;17.38;82.44
28927;BME280;16038;47.692;9.400;2023-06-10T04:23:07;96205.16;;;17.37;82.52
28927;BME280;16038;47.692;9.400;2023-06-10T04:25:33;96202.28;;;17.64;80.67
28927;BME280;16038;47.692;9.400;2023-06-10T04:27:59;96202.94;;;17.72;79.96
28927;BME280;16038;47.692;9.400;2023-06-10T04:30:24;96204.28;;;17.84;79.30
28927;BME280;16038;47.692;9.400;2023-06-10T04:32:50;96205.13;;;17.81;79.51
28927;BME280;16038;47.692;9.400;2023-06-10T04:35:15;96202.78;;;18.19;77.95
28927;BME280;16038;47.692;9.400;2023-06-10T04:37:41;96205.34;;;18.30;77.10
28927;BME280;16038;47.692;9.400;2023-06-10T04:40:07;96203.53;;;18.56;75.41
28927;BME280;16038;47.692;9.400;2023-06-10T04:42:33;96211.34;;;18.61;75.18
28927;BME280;16038;47.692;9.400;2023-06-10T04:44:59;96208.88;;;18.83;73.01
28927;BME280;16038;47.692;9.400;2023-06-10T04:47:26;96210.06;;;19.32;71.47
28927;BME280;16038;47.692;9.400;2023-06-10T04:49:51;96214.34;;;20.75;65.46
28927;BME280;16038;47.692;9.400;2023-06-10T04:52:17;96213.59;;;22.37;58.38
28927;BME280;16038;47.692;9.400;2023-06-10T04:54:43;96214.47;;;23.92;52.48
28927;BME280;16038;47.692;9.400;2023-06-10T04:57:08;96217.94;;;24.91;47.55
28927;BME280;16038;47.692;9.400;2023-06-10T04:59:34;96236.00;;;25.96;44.89
28927;BME280;16038;47.692;9.400;2023-06-10T05:02:03;96242.69;;;26.58;43.40
28927;BME280;16038;47.692;9.400;2023-06-10T05:04:29;96245.94;;;27.51;41.34
28927;BME280;16038;47.692;9.400;2023-06-10T05:06:55;96238.81;;;27.91;40.22
28927;BME280;16038;47.692;9.400;2023-06-10T05:09:20;96238.78;;;28.38;39.52
28927;BME280;16038;47.692;9.400;2023-06-10T05:11:46;96246.81;;;29.09;37.10
28927;BME280;16038;47.692;9.400;2023-06-10T05:14:12;96249.97;;;29.65;36.34
28927;BME280;16038;47.692;9.400;2023-06-10T05:16:37;96247.69;;;27.13;39.98
28927;BME280;16038;47.692;9.400;2023-06-10T05:19:03;96247.75;;;26.68;42.30
28927;BME280;16038;47.692;9.400;2023-06-10T05:21:29;96253.50;;;26.74;41.29
28927;BME280;16038;47.692;9.400;2023-06-10T05:23:54;96257.34;;;20.74;57.88
28927;BME280;16038;47.692;9.400;2023-06-10T05:26:20;96260.88;;;20.62;60.91
28927;BME280;16038;47.692;9.400;2023-06-10T05:28:45;96257.47;;;22.67;53.52
28927;BME280;16038;47.692;9.400;2023-06-10T05:31:10;96266.56;;;24.69;48.08
28927;BME280;16038;47.692;9.400;2023-06-10T05:33:36;96260.66;;;23.19;52.13
28927;BME280;16038;47.692;9.400;2023-06-10T05:36:02;96262.50;;;25.70;46.26
28927;BME280;16038;47.692;9.400;2023-06-10T05:38:27;96255.50;;;27.59;41.67
28927;BME280;16038;47.692;9.400;2023-06-10T05:40:52;96259.44;;;27.88;40.28
28927;BME280;16038;47.692;9.400;2023-06-10T05:43:18;96263.34;;;23.41;49.36
28927;BME280;16038;47.692;9.400;2023-06-10T05:45:44;96263.19;;;23.63;48.95
28927;BME280;16038;47.692;9.400;2023-06-10T05:48:09;96263.69;;;24.27;49.46
28927;BME280;16038;47.692;9.400;2023-06-10T05:50:34;96261.09;;;27.03;42.77
28927;BME280;16038;47.692;9.400;2023-06-10T05:53:04;96269.44;;;28.56;38.94
28927;BME280;16038;47.692;9.400;2023-06-10T05:55:32;96280.00;;;29.68;36.80
28927;BME280;16038;47.692;9.400;2023-06-10T05:58:00;96283.69;;;29.80;35.29
28927;BME280;16038;47.692;9.400;2023-06-10T06:00:26;96286.41;;;25.32;43.12
28927;BME280;16038;47.692;9.400;2023-06-10T06:02:53;96277.53;;;24.02;47.18
28927;BME280;16038;47.692;9.400;2023-06-10T06:05:19;96278.72;;;22.43;52.03
28927;BME280;16038;47.692;9.400;2023-06-10T06:07:45;96270.22;;;22.02;53.53
28927;BME280;16038;47.692;9.400;2023-06-10T06:10:10;96275.47;;;22.00;55.49
28927;BME280;16038;47.692;9.400;2023-06-10T06:12:35;96278.47;;;21.71;57.50
28927;BME280;16038;47.692;9.400;2023-06-10T06:15:01;96274.06;;;21.35;59.12
28927;BME280;16038;47.692;9.400;2023-06-10T06:17:27;96271.56;;;22.20;55.54
28927;BME280;16038;47.692;9.400;2023-06-10T06:19:52;96285.69;;;21.20;58.77
28927;BME280;16038;47.692;9.400;2023-06-10T06:22:17;96285.38;;;20.80;61.54
28927;BME280;16038;47.692;9.400;2023-06-10T06:24:46;96277.75;;;20.55;61.98
28927;BME280;16038;47.692;9.400;2023-06-10T06:27:12;96276.44;;;20.72;62.02
28927;BME280;16038;47.692;9.400;2023-06-10T06:29:37;96263.78;;;22.14;57.38
28927;BME280;16038;47.692;9.400;2023-06-10T06:32:03;96264.06;;;21.37;59.28
28927;BME280;16038;47.692;9.400;2023-06-10T06:34:28;96270.06;;;21.49;59.76
28927;BME280;16038;47.692;9.400;2023-06-10T06:36:54;96270.63;;;22.36;57.38
28927;BME280;16038;47.692;9.400;2023-06-10T06:39:19;96271.28;;;21.35;61.09
28927;BME280;16038;47.692;9.400;2023-06-10T06:41:44;96269.16;;;21.65;59.01
28927;BME280;16038;47.692;9.400;2023-06-10T06:44:10;96279.56;;;23.83;52.51
28927;BME280;16038;47.692;9.400;2023-06-10T06:46:35;96273.91;;;22.21;56.67
28927;BME280;16038;47.692;9.400;2023-06-10T06:49:00;96282.16;;;22.03;58.52
28927;BME280;16038;47.692;9.400;2023-06-10T06:51:26;96276.31;;;23.17;55.17
28927;BME280;16038;47.692;9.400;2023-06-10T06:53:51;96278.13;;;24.43;50.20
28927;BME280;16038;47.692;9.400;2023-06-10T06:56:19;96285.94;;;25.58;47.11
28927;BME280;16038;47.692;9.400;2023-06-10T06:58:46;96277.53;;;23.84;50.80
28927;BME280;16038;47.692;9.400;2023-06-10T07:01:11;96280.41;;;26.81;43.63
28927;BME280;16038;47.692;9.400;2023-06-10T07:03:37;96286.41;;;28.94;39.88
28927;BME280;16038;47.692;9.400;2023-06-10T07:06:02;96285.38;;;30.32;36.05
28927;BME280;16038;47.692;9.400;2023-06-10T07:08:28;96295.78;;;31.20;33.06
28927;BME280;16038;47.692;9.400;2023-06-10T07:10:54;96291.69;;;31.21;33.59
28927;BME280;16038;47.692;9.400;2023-06-10T07:13:19;96297.09;;;30.96;33.48
28927;BME280;16038;47.692;9.400;2023-06-10T07:15:45;96283.03;;;32.00;32.11
28927;BME280;16038;47.692;9.400;2023-06-10T07:18:11;96284.28;;;32.10;31.41
28927;BME280;16038;47.692;9.400;2023-06-10T07:20:36;96288.22;;;31.85;31.80
28927;BME280;16038;47.692;9.400;2023-06-10T07:23:01;96284.22;;;32.69;30.70
28927;BME280;16038;47.692;9.400;2023-06-10T07:25:27;96296.50;;;32.35;30.64
28927;BME280;16038;47.692;9.400;2023-06-10T07:27:52;96287.63;;;32.56;30.77
28927;BME280;16038;47.692;9.400;2023-06-10T07:30:17;96295.28;;;32.25;30.79
28927;BME280;16038;47.692;9.400;2023-06-10T07:32:43;96293.72;;;33.93;29.28
28927;BME280;16038;47.692;9.400;2023-06-10T07:35:09;96292.38;;;34.56;27.33
28927;BME280;16038;47.692;9.400;2023-06-10T07:37:36;96294.41;;;33.74;28.40
28927;BME280;16038;47.692;9.400;2023-06-10T07:40:02;96302.13;;;34.23;27.58
28927;BME280;16038;47.692;9.400;2023-06-10T07:42:27;96295.31;;;33.03;29.54
28927;BME280;16038;47.692;9.400;2023-06-10T07:44:53;96296.50;;;31.71;31.45
28927;BME280;16038;47.692;9.400;2023-06-10T07:47:18;96294.13;;;33.23;29.43
28927;BME280;16038;47.692;9.400;2023-06-10T07:49:43;96291.81;;;33.76;28.85
28927;BME280;16038;47.692;9.400;2023-06-10T07:52:09;96287.53;;;33.88;28.69
28927;BME280;16038;47.692;9.400;2023-06-10T07:54:34;96288.97;;;32.91;29.74
28927;BME280;16038;47.692;9.400;2023-06-10T07:57:00;96290.44;;;29.57;35.19
28927;BME280;16038;47.692;9.400;2023-06-10T07:59:25;96296.88;;;30.06;35.42
28927;BME280;16038;47.692;9.400;2023-06-10T08:01:52;96287.44;;;27.06;40.68
28927;BME280;16038;47.692;9.400;2023-06-10T08:04:18;96290.72;;;24.57;45.79
28927;BME280;16038;47.692;9.400;2023-06-10T08:06:43;96292.72;;;23.74;49.32
28927;BME280;16038;47.692;9.400;2023-06-10T08:09:08;96287.94;;;23.93;49.96
28927;BME280;16038;47.692;9.400;2023-06-10T08:11:34;96293.19;;;24.65;47.51
28927;BME280;16038;47.692;9.400;2023-06-10T08:13:59;96285.16;;;24.11;47.61
28927;BME280;16038;47.692;9.400;2023-06-10T08:16:25;96287.44;;;23.66;49.21
28927;BME280;16038;47.692;9.400;2023-06-10T08:18:50;96281.75;;;23.20;52.23
28927;BME280;16038;47.692;9.400;2023-06-10T08:21:15;96281.81;;;22.98;52.59
28927;BME280;16038;47.692;9.400;2023-06-10T08:23:41;96283.28;;;24.17;49.18
28927;BME280;16038;47.692;9.400;2023-06-10T08:26:06;96282.66;;;25.35;45.63
28927;BME280;16038;47.692;9.400;2023-06-10T08:28:32;96282.66;;;23.85;48.94
28927;BME280;16038;47.692;9.400;2023-06-10T08:30:57;96285.63;;;24.19;49.58
28927;BME280;16038;47.692;9.400;2023-06-10T08:33:22;96285.41;;;23.67;49.71
28927;BME280;16038;47.692;9.400;2023-06-10T08:35:48;96277.38;;;24.15;49.29
28927;BME280;16038;47.692;9.400;2023-06-10T08:38:13;96285.44;;;23.08;51.65
28927;BME280;16038;47.692;9.400;2023-06-10T08:40:39;96280.91;;;23.60;50.25
28927;BME280;16038;47.692;9.400;2023-06-10T08:43:09;96286.28;;;25.27;48.50
28927;BME280;16038;47.692;9.400;2023-06-10T08:45:36;96285.94;;;26.75;44.77
28927;BME280;16038;47.692;9.400;2023-06-10T08:48:03;96282.28;;;27.55;43.07
28927;BME280;16038;47.692;9.400;2023-06-10T08:50:34;96276.50;;;26.93;44.30
28927;BME280;16038;47.692;9.400;2023-06-10T08:53:00;96278.31;;;28.02;42.30
28927;BME280;16038;47.692;9.400;2023-06-10T08:55:32;96281.97;;;28.55;40.71
28927;BME280;16038;47.692;9.400;2023-06-10T08:58:01;96281.47;;;28.31;40.23
28927;BME280;16038;47.692;9.400;2023-06-10T09:00:28;96284.63;;;28.96;39.97
28927;BME280;16038;47.692;9.400;2023-06-10T09:02:55;96275.75;;;28.51;40.36
28927;BME280;16038;47.692;9.400;2023-06-10T09:05:21;96276.16;;;28.38;41.33
28927;BME280;16038;47.692;9.400;2023-06-10T09:07:48;96277.03;;;28.76;39.52
28927;BME280;16038;47.692;9.400;2023-06-10T09:10:14;96270.41;;;26.95;43.87
28927;BME280;16038;47.692;9.400;2023-06-10T09:12:39;96275.75;;;27.63;41.95
28927;BME280;16038;47.692;9.400;2023-06-10T09:15:08;96273.56;;;27.17;42.56
28927;BME280;16038;47.692;9.400;2023-06-10T09:17:34;96282.41;;;27.60;42.90
28927;BME280;16038;47.692;9.400;2023-06-10T09:20:01;96274.53;;;27.14;44.45
28927;BME280;16038;47.692;9.400;2023-06-10T09:22:28;96271.50;;;27.33;43.68
28927;BME280;16038;47.692;9.400;2023-06-10T09:25:07;96272.28;;;27.33;44.31
28927;BME280;16038;47.692;9.400;2023-06-10T09:30:29;96266.53;;;26.77;45.18
28927;BME280;16038;47.692;9.400;2023-06-10T09:32:56;96271.88;;;26.60;45.54
28927;BME280;16038;47.692;9.400;2023-06-10T09:35:26;96271.28;;;26.41;44.61
28927;BME280;16038;47.692;9.400;2023-06-10T09:37:59;96277.97;;;27.03;44.00
28927;BME280;16038;47.692;9.400;2023-06-10T09:40:26;96269.41;;;27.13;43.92
28927;BME280;16038;47.692;9.400;2023-06-10T09:42:54;96270.34;;;27.24;43.84
28927;BME280;16038;47.692;9.400;2023-06-10T09:45:20;96262.91;;;27.77;42.29
28927;BME280;16038;47.692;9.400;2023-06-10T09:47:47;96256.78;;;28.20;42.22
28927;BME280;16038;47.692;9.400;2023-06-10T09:50:13;96251.13;;;28.46;41.65
28927;BME280;16038;47.692;9.400;2023-06-10T09:52:38;96256.25;;;28.21;41.80
28927;BME280;16038;47.692;9.400;2023-06-10T09:55:07;96266.09;;;28.32;41.97
28927;BME280;16038;47.692;9.400;2023-06-10T09:57:34;96254.09;;;27.49;43.44
28927;BME280;16038;47.692;9.400;2023-06-10T10:00:11;96253.50;;;27.09;43.99
28927;BME280;16038;47.692;9.400;2023-06-10T10:02:51;96248.31;;;26.87;44.53
28927;BME280;16038;47.692;9.400;2023-06-10T10:05:18;96266.16;;;26.99;45.00
28927;BME280;16038;47.692;9.400;2023-06-10T10:07:44;96262.84;;;26.41;46.24
28927;BME280;16038;47.692;9.400;2023-06-10T10:10:11;96259.66;;;26.48;46.88
28927;BME280;16038;47.692;9.400;2023-06-10T10:12:40;96259.13;;;27.24;44.90
28927;BME280;16038;47.692;9.400;2023-06-10T10:15:08;96251.75;;;27.27;44.18
28927;BME280;16038;47.692;9.400;2023-06-10T10:17:36;96262.31;;;27.32;44.48
28927;BME280;16038;47.692;9.400;2023-06-10T10:20:04;96244.75;;;27.22;44.64
28927;BME280;16038;47.692;9.400;2023-06-10T10:22:41;96248.78;;;27.92;42.80
28927;BME280;16038;47.692;9.400;2023-06-10T10:25:11;96249.53;;;27.93;42.69
28927;BME280;16038;47.692;9.400;2023-06-10T10:28:10;96244.34;;;28.06;42.25
28927;BME280;16038;47.692;9.400;2023-06-10T10:30:46;96245.72;;;28.16;41.47
28927;BME280;16038;47.692;9.400;2023-06-10T10:33:40;96252.69;;;27.59;43.09
28927;BME280;16038;47.692;9.400;2023-06-10T10:36:07;96239.91;;;26.87;44.70
28927;BME280;16038;47.692;9.400;2023-06-10T10:38:34;96239.41;;;26.89;44.87
28927;BME280;16038;47.692;9.400;2023-06-10T10:41:00;96227.31;;;26.83;44.77
28927;BME280;16038;47.692;9.400;2023-06-10T10:43:27;96235.44;;;26.81;44.80
28927;BME280;16038;47.692;9.400;2023-06-10T10:46:08;96241.25;;;27.63;43.69
28927;BME280;16038;47.692;9.400;2023-06-10T10:48:37;96239.25;;;27.69;42.74
28927;BME280;16038;47.692;9.400;2023-06-10T10:51:03;96235.34;;;27.61;42.59
28927;BME280;16038;47.692;9.400;2023-06-10T10:53:29;96230.41;;;27.56;43.51
28927;BME280;16038;47.692;9.400;2023-06-10T10:58:31;96231.38;;;28.40;41.17
28927;BME280;16038;47.692;9.400;2023-06-10T11:00:57;96229.94;;;28.25;41.85
28927;BME280;16038;47.692;9.400;2023-06-10T11:03:28;96226.63;;;28.26;41.48
28927;BME280;16038;47.692;9.400;2023-06-10T11:05:57;96227.59;;;27.20;43.79
28927;BME280;16038;47.692;9.400;2023-06-10T11:10:54;96218.75;;;27.42;43.58
28927;BME280;16038;47.692;9.400;2023-06-10T11:13:20;96224.31;;;27.22;43.88
28927;BME280;16038;47.692;9.400;2023-06-10T11:15:50;96221.47;;;27.37;44.04
28927;BME280;16038;47.692;9.400;2023-06-10T11:18:29;96220.19;;;27.58;44.22
28927;BME280;16038;47.692;9.400;2023-06-10T11:31:24;96214.66;;;27.64;45.03
28927;BME280;16038;47.692;9.400;2023-06-10T11:34:01;96215.69;;;27.87;41.03
28927;BME280;16038;47.692;9.400;2023-06-10T11:36:28;96207.25;;;28.08;42.96
28927;BME280;16038;47.692;9.400;2023-06-10T11:38:58;96204.41;;;28.34;43.36
28927;BME280;16038;47.692;9.400;2023-06-10T11:41:25;96201.31;;;27.59;44.47
28927;BME280;16038;47.692;9.400;2023-06-10T11:43:52;96203.47;;;27.70;44.19
28927;BME280;16038;47.692;9.400;2023-06-10T11:46:18;96189.72;;;27.98;44.08
28927;BME280;16038;47.692;9.400;2023-06-10T11:48:54;96203.41;;;28.11;44.90
28927;BME280;16038;47.692;9.400;2023-06-10T11:51:20;96196.25;;;27.42;45.21
28927;BME280;16038;47.692;9.400;2023-06-10T11:53:49;96198.28;;;27.42;46.35
28927;BME280;16038;47.692;9.400;2023-06-10T11:56:25;96203.38;;;27.84;44.64
28927;BME280;16038;47.692;9.400;2023-06-10T11:59:05;96195.31;;;28.18;43.67
28927;BME280;16038;47.692;9.400;2023-06-10T12:01:33;96203.59;;;28.28;43.43
28927;BME280;16038;47.692;9.400;2023-06-10T12:04:04;96196.25;;;28.36;43.54
28927;BME280;16038;47.692;9.400;2023-06-10T12:06:44;96192.88;;;28.58;42.14
28927;BME280;16038;47.692;9.400;2023-06-10T12:11:42;96189.97;;;28.20;41.38
28927;BME280;16038;47.692;9.400;2023-06-10T12:14:08;96185.00;;;28.68;41.50
28927;BME280;16038;47.692;9.400;2023-06-10T12:16:33;96185.25;;;29.02;41.14
28927;BME280;16038;47.692;9.400;2023-06-10T12:19:03;96184.13;;;29.25;39.20
28927;BME280;16038;47.692;9.400;2023-06-10T12:21:29;96189.03;;;29.36;39.90
28927;BME280;16038;47.692;9.400;2023-06-10T12:24:23;96175.06;;;28.14;37.59
28927;BME280;16038;47.692;9.400;2023-06-10T12:26:48;96183.84;;;27.55;38.73
28927;BME280;16038;47.692;9.400;2023-06-10T12:32:00;96180.97;;;26.93;40.21
28927;BME280;16038;47.692;9.400;2023-06-10T12:34:34;96182.53;;;27.50;37.62
28927;BME280;16038;47.692;9.400;2023-06-10T12:37:02;96181.97;;;28.13;37.07
28927;BME280;16038;47.692;9.400;2023-06-10T12:39:32;96175.03;;;27.88;36.86
28927;BME280;16038;47.692;9.400;2023-06-10T12:41:58;96174.69;;;28.96;34.25
28927;BME280;16038;47.692;9.400;2023-06-10T12:44:35;96171.97;;;29.62;33.24
28927;BME280;16038;47.692;9.400;2023-06-10T12:47:06;96175.06;;;29.64;34.12
28927;BME280;16038;47.692;9.400;2023-06-10T12:49:32;96173.75;;;29.60;33.70
28927;BME280;16038;47.692;9.400;2023-06-10T12:51:58;96170.91;;;27.22;37.57
28927;BME280;16038;47.692;9.400;2023-06-10T12:54:23;96173.50;;;26.10;39.68
28927;BME280;16038;47.692;9.400;2023-06-10T12:56:50;96166.81;;;26.37;40.03
28927;BME280;16038;47.692;9.400;2023-06-10T12:59:16;96163.34;;;26.12;40.20
28927;BME280;16038;47.692;9.400;2023-06-10T13:01:41;96158.50;;;26.28;40.34
28927;BME280;16038;47.692;9.400;2023-06-10T13:04:06;96163.97;;;25.92;39.57
28927;BME280;16038;47.692;9.400;2023-06-10T13:06:32;96163.47;;;25.64;40.42
28927;BME280;16038;47.692;9.400;2023-06-10T13:09:02;96164.72;;;25.15;39.96
28927;BME280;16038;47.692;9.400;2023-06-10T13:11:28;96159.88;;;25.64;39.86
28927;BME280;16038;47.692;9.400;2023-06-10T13:13:53;96163.66;;;26.15;38.68
28927;BME280;16038;47.692;9.400;2023-06-10T13:16:18;96158.03;;;26.29;37.83
28927;BME280;16038;47.692;9.400;2023-06-10T13:18:44;96154.63;;;26.40;37.76
28927;BME280;16038;47.692;9.400;2023-06-10T13:21:09;96142.25;;;26.82;38.08
28927;BME280;16038;47.692;9.400;2023-06-10T13:23:34;96134.91;;;26.85;39.30
28927;BME280;16038;47.692;9.400;2023-06-10T13:26:00;96134.72;;;26.74;39.71